All Spectrum Aviation - Van Nuys Airport - KVNY

HOME

Condor Squadron KVNY Webcam

Visit our Electronics Store

Condor Squadron Webcam - Van Nuys Airport - KVNY
Picture taken: Sun, 21 Oct 2018 06:22:21 -0700
YouTube Channel!    Latest Timelapse Movie    Full Size Image    Regular Size Image    

2018/10/21 12:51 KVNY 211251Z 01003KT 10SM CLR 16/06 A2991 RMK AO2 SLP120 T01560056

HOME

Condor Squadron KVNY Webcam

Visit our Electronics Store